sensor_id;sensor_type;location;lat;lon;timestamp;P1;durP1;ratioP1;P2;durP2;ratioP2
32535;SDS011;18974;50.838;4.636;2022-11-15T00:01:47;29.42;;;17.60;;
32535;SDS011;18974;50.838;4.636;2022-11-15T00:04:12;32.90;;;17.33;;
32535;SDS011;18974;50.838;4.636;2022-11-15T00:06:38;34.58;;;17.95;;
32535;SDS011;18974;50.838;4.636;2022-11-15T00:09:04;33.40;;;16.77;;
32535;SDS011;18974;50.838;4.636;2022-11-15T00:11:29;34.05;;;18.20;;
32535;SDS011;18974;50.838;4.636;2022-11-15T00:13:55;29.77;;;17.73;;
32535;SDS011;18974;50.838;4.636;2022-11-15T00:16:22;34.83;;;17.05;;
32535;SDS011;18974;50.838;4.636;2022-11-15T00:18:47;30.55;;;17.50;;
32535;SDS011;18974;50.838;4.636;2022-11-15T00:21:13;32.83;;;17.98;;
32535;SDS011;18974;50.838;4.636;2022-11-15T00:23:40;35.20;;;17.92;;
32535;SDS011;18974;50.838;4.636;2022-11-15T00:26:05;32.70;;;18.55;;
32535;SDS011;18974;50.838;4.636;2022-11-15T00:28:32;32.40;;;16.75;;
32535;SDS011;18974;50.838;4.636;2022-11-15T00:31:05;31.67;;;17.52;;
32535;SDS011;18974;50.838;4.636;2022-11-15T00:33:32;30.75;;;17.40;;
32535;SDS011;18974;50.838;4.636;2022-11-15T00:36:05;31.05;;;18.02;;
32535;SDS011;18974;50.838;4.636;2022-11-15T00:38:34;32.65;;;18.25;;
32535;SDS011;18974;50.838;4.636;2022-11-15T00:41:01;31.90;;;17.38;;
32535;SDS011;18974;50.838;4.636;2022-11-15T00:43:28;28.30;;;16.83;;
32535;SDS011;18974;50.838;4.636;2022-11-15T00:45:54;32.45;;;16.80;;
32535;SDS011;18974;50.838;4.636;2022-11-15T00:48:20;37.85;;;18.63;;
32535;SDS011;18974;50.838;4.636;2022-11-15T00:50:45;31.02;;;17.00;;
32535;SDS011;18974;50.838;4.636;2022-11-15T00:53:11;30.88;;;16.98;;
32535;SDS011;18974;50.838;4.636;2022-11-15T00:55:37;30.38;;;16.55;;
32535;SDS011;18974;50.838;4.636;2022-11-15T00:58:03;27.23;;;16.65;;
32535;SDS011;18974;50.838;4.636;2022-11-15T01:00:28;32.22;;;16.30;;
32535;SDS011;18974;50.838;4.636;2022-11-15T01:02:54;30.88;;;16.40;;
32535;SDS011;18974;50.838;4.636;2022-11-15T01:05:20;29.33;;;16.83;;
32535;SDS011;18974;50.838;4.636;2022-11-15T01:07:45;30.17;;;17.00;;
32535;SDS011;18974;50.838;4.636;2022-11-15T01:10:11;27.55;;;16.30;;
32535;SDS011;18974;50.838;4.636;2022-11-15T01:12:37;30.92;;;17.33;;
32535;SDS011;18974;50.838;4.636;2022-11-15T01:15:03;25.75;;;16.20;;
32535;SDS011;18974;50.838;4.636;2022-11-15T01:17:30;33.58;;;17.35;;
32535;SDS011;18974;50.838;4.636;2022-11-15T01:19:56;34.05;;;16.67;;
32535;SDS011;18974;50.838;4.636;2022-11-15T01:22:22;25.13;;;15.68;;
32535;SDS011;18974;50.838;4.636;2022-11-15T01:24:49;28.90;;;17.23;;
32535;SDS011;18974;50.838;4.636;2022-11-15T01:27:15;29.77;;;17.75;;
32535;SDS011;18974;50.838;4.636;2022-11-15T01:29:41;27.80;;;16.83;;
32535;SDS011;18974;50.838;4.636;2022-11-15T01:32:07;30.95;;;16.45;;
32535;SDS011;18974;50.838;4.636;2022-11-15T01:34:33;29.50;;;16.38;;
32535;SDS011;18974;50.838;4.636;2022-11-15T01:36:58;30.13;;;17.48;;
32535;SDS011;18974;50.838;4.636;2022-11-15T01:39:24;30.80;;;16.58;;
32535;SDS011;18974;50.838;4.636;2022-11-15T01:41:50;32.47;;;17.70;;
32535;SDS011;18974;50.838;4.636;2022-11-15T01:47:00;28.65;;;17.48;;
32535;SDS011;18974;50.838;4.636;2022-11-15T01:49:30;31.23;;;17.55;;
32535;SDS011;18974;50.838;4.636;2022-11-15T01:51:58;29.40;;;16.88;;
32535;SDS011;18974;50.838;4.636;2022-11-15T01:54:26;32.05;;;17.45;;
32535;SDS011;18974;50.838;4.636;2022-11-15T01:56:53;36.00;;;19.23;;
32535;SDS011;18974;50.838;4.636;2022-11-15T01:59:26;34.63;;;18.10;;
32535;SDS011;18974;50.838;4.636;2022-11-15T02:01:51;41.13;;;18.77;;
32535;SDS011;18974;50.838;4.636;2022-11-15T02:04:31;37.00;;;20.30;;
32535;SDS011;18974;50.838;4.636;2022-11-15T02:06:59;24.90;;;16.65;;
32535;SDS011;18974;50.838;4.636;2022-11-15T02:09:26;31.23;;;17.95;;
32535;SDS011;18974;50.838;4.636;2022-11-15T02:11:52;32.47;;;17.48;;
32535;SDS011;18974;50.838;4.636;2022-11-15T02:14:19;30.52;;;17.23;;
32535;SDS011;18974;50.838;4.636;2022-11-15T02:23:04;32.00;;;17.65;;
32535;SDS011;18974;50.838;4.636;2022-11-15T02:31:28;29.92;;;17.40;;
32535;SDS011;18974;50.838;4.636;2022-11-15T02:34:08;29.23;;;17.63;;
32535;SDS011;18974;50.838;4.636;2022-11-15T02:37:15;33.25;;;17.25;;
32535;SDS011;18974;50.838;4.636;2022-11-15T02:39:51;29.08;;;16.90;;
32535;SDS011;18974;50.838;4.636;2022-11-15T02:42:30;29.30;;;16.95;;
32535;SDS011;18974;50.838;4.636;2022-11-15T02:45:21;27.65;;;17.05;;
32535;SDS011;18974;50.838;4.636;2022-11-15T02:47:52;33.10;;;19.13;;
32535;SDS011;18974;50.838;4.636;2022-11-15T02:50:23;31.90;;;18.40;;
32535;SDS011;18974;50.838;4.636;2022-11-15T02:52:52;37.55;;;19.90;;
32535;SDS011;18974;50.838;4.636;2022-11-15T02:55:37;34.42;;;18.77;;
32535;SDS011;18974;50.838;4.636;2022-11-15T03:06:25;34.97;;;19.15;;
32535;SDS011;18974;50.838;4.636;2022-11-15T03:09:08;34.55;;;18.23;;
32535;SDS011;18974;50.838;4.636;2022-11-15T03:11:40;32.30;;;18.00;;
32535;SDS011;18974;50.838;4.636;2022-11-15T03:21:53;32.33;;;19.08;;
32535;SDS011;18974;50.838;4.636;2022-11-15T03:24:20;39.10;;;18.80;;
32535;SDS011;18974;50.838;4.636;2022-11-15T03:26:49;39.22;;;18.92;;
32535;SDS011;18974;50.838;4.636;2022-11-15T03:29:28;33.70;;;17.90;;
32535;SDS011;18974;50.838;4.636;2022-11-15T03:31:59;38.35;;;19.25;;
32535;SDS011;18974;50.838;4.636;2022-11-15T03:34:33;36.47;;;19.25;;
32535;SDS011;18974;50.838;4.636;2022-11-15T03:37:03;33.58;;;19.38;;
32535;SDS011;18974;50.838;4.636;2022-11-15T03:39:30;30.98;;;19.20;;
32535;SDS011;18974;50.838;4.636;2022-11-15T03:47:48;30.55;;;18.30;;
32535;SDS011;18974;50.838;4.636;2022-11-15T03:50:13;35.58;;;17.05;;
32535;SDS011;18974;50.838;4.636;2022-11-15T03:52:41;28.65;;;17.33;;
32535;SDS011;18974;50.838;4.636;2022-11-15T03:55:12;30.13;;;16.33;;
32535;SDS011;18974;50.838;4.636;2022-11-15T03:57:40;27.97;;;15.57;;
32535;SDS011;18974;50.838;4.636;2022-11-15T04:00:06;28.27;;;16.60;;
32535;SDS011;18974;50.838;4.636;2022-11-15T04:02:32;23.45;;;13.93;;
32535;SDS011;18974;50.838;4.636;2022-11-15T04:04:57;25.05;;;14.05;;
32535;SDS011;18974;50.838;4.636;2022-11-15T04:07:23;26.63;;;14.50;;
32535;SDS011;18974;50.838;4.636;2022-11-15T04:09:49;25.45;;;14.13;;
32535;SDS011;18974;50.838;4.636;2022-11-15T04:12:34;21.77;;;13.00;;
32535;SDS011;18974;50.838;4.636;2022-11-15T04:15:03;26.58;;;14.60;;
32535;SDS011;18974;50.838;4.636;2022-11-15T04:17:44;23.30;;;13.68;;
32535;SDS011;18974;50.838;4.636;2022-11-15T04:23:03;20.13;;;12.38;;
32535;SDS011;18974;50.838;4.636;2022-11-15T04:25:49;28.85;;;13.23;;
32535;SDS011;18974;50.838;4.636;2022-11-15T04:28:17;23.05;;;12.27;;
32535;SDS011;18974;50.838;4.636;2022-11-15T04:30:42;28.27;;;12.07;;
32535;SDS011;18974;50.838;4.636;2022-11-15T04:33:08;17.48;;;10.13;;
32535;SDS011;18974;50.838;4.636;2022-11-15T04:35:34;20.85;;;9.95;;
32535;SDS011;18974;50.838;4.636;2022-11-15T04:38:00;18.35;;;8.85;;
32535;SDS011;18974;50.838;4.636;2022-11-15T04:40:27;17.38;;;8.70;;
32535;SDS011;18974;50.838;4.636;2022-11-15T04:42:53;18.52;;;8.63;;
32535;SDS011;18974;50.838;4.636;2022-11-15T04:45:18;16.58;;;9.00;;
32535;SDS011;18974;50.838;4.636;2022-11-15T04:47:44;17.73;;;8.98;;
32535;SDS011;18974;50.838;4.636;2022-11-15T04:50:10;14.98;;;9.43;;
32535;SDS011;18974;50.838;4.636;2022-11-15T04:52:39;16.48;;;8.52;;
32535;SDS011;18974;50.838;4.636;2022-11-15T04:55:06;16.98;;;8.23;;
32535;SDS011;18974;50.838;4.636;2022-11-15T04:57:32;18.23;;;9.18;;
32535;SDS011;18974;50.838;4.636;2022-11-15T04:59:57;18.27;;;8.82;;
32535;SDS011;18974;50.838;4.636;2022-11-15T05:02:23;18.33;;;8.52;;
32535;SDS011;18974;50.838;4.636;2022-11-15T05:04:48;15.77;;;8.23;;
32535;SDS011;18974;50.838;4.636;2022-11-15T05:07:14;16.20;;;8.18;;
32535;SDS011;18974;50.838;4.636;2022-11-15T05:09:39;15.10;;;8.35;;
32535;SDS011;18974;50.838;4.636;2022-11-15T05:12:05;14.20;;;8.20;;
32535;SDS011;18974;50.838;4.636;2022-11-15T05:14:31;14.02;;;7.82;;
32535;SDS011;18974;50.838;4.636;2022-11-15T05:16:56;15.73;;;8.25;;
32535;SDS011;18974;50.838;4.636;2022-11-15T05:19:22;14.88;;;7.38;;
32535;SDS011;18974;50.838;4.636;2022-11-15T05:21:48;17.77;;;7.82;;
32535;SDS011;18974;50.838;4.636;2022-11-15T05:24:13;16.48;;;7.78;;
32535;SDS011;18974;50.838;4.636;2022-11-15T05:26:39;17.80;;;7.90;;
32535;SDS011;18974;50.838;4.636;2022-11-15T05:29:05;15.93;;;7.70;;
32535;SDS011;18974;50.838;4.636;2022-11-15T05:31:30;17.60;;;8.38;;
32535;SDS011;18974;50.838;4.636;2022-11-15T05:33:56;16.02;;;8.02;;
32535;SDS011;18974;50.838;4.636;2022-11-15T05:36:37;14.35;;;9.60;;
32535;SDS011;18974;50.838;4.636;2022-11-15T05:39:06;14.45;;;8.27;;
32535;SDS011;18974;50.838;4.636;2022-11-15T05:41:37;19.13;;;8.07;;
32535;SDS011;18974;50.838;4.636;2022-11-15T05:44:07;17.92;;;7.00;;
32535;SDS011;18974;50.838;4.636;2022-11-15T05:46:35;16.10;;;8.73;;
32535;SDS011;18974;50.838;4.636;2022-11-15T05:49:03;15.57;;;7.80;;
32535;SDS011;18974;50.838;4.636;2022-11-15T05:51:32;21.92;;;8.55;;
32535;SDS011;18974;50.838;4.636;2022-11-15T05:53:58;17.70;;;8.30;;
32535;SDS011;18974;50.838;4.636;2022-11-15T05:56:26;20.38;;;8.38;;
32535;SDS011;18974;50.838;4.636;2022-11-15T05:58:53;20.35;;;8.95;;
32535;SDS011;18974;50.838;4.636;2022-11-15T06:01:20;15.98;;;8.27;;
32535;SDS011;18974;50.838;4.636;2022-11-15T06:03:46;22.67;;;8.68;;
32535;SDS011;18974;50.838;4.636;2022-11-15T06:06:12;22.38;;;10.35;;
32535;SDS011;18974;50.838;4.636;2022-11-15T06:08:37;19.67;;;9.23;;
32535;SDS011;18974;50.838;4.636;2022-11-15T06:11:04;16.65;;;8.45;;
32535;SDS011;18974;50.838;4.636;2022-11-15T06:13:30;14.98;;;8.25;;
32535;SDS011;18974;50.838;4.636;2022-11-15T06:15:57;20.63;;;9.27;;
32535;SDS011;18974;50.838;4.636;2022-11-15T06:18:23;25.05;;;9.60;;
32535;SDS011;18974;50.838;4.636;2022-11-15T06:20:49;15.32;;;9.15;;
32535;SDS011;18974;50.838;4.636;2022-11-15T06:23:14;24.08;;;10.57;;
32535;SDS011;18974;50.838;4.636;2022-11-15T06:25:40;19.25;;;9.88;;
32535;SDS011;18974;50.838;4.636;2022-11-15T06:28:05;18.88;;;9.45;;
32535;SDS011;18974;50.838;4.636;2022-11-15T06:30:31;22.63;;;10.02;;
32535;SDS011;18974;50.838;4.636;2022-11-15T06:33:01;22.70;;;10.90;;
32535;SDS011;18974;50.838;4.636;2022-11-15T06:35:29;24.40;;;10.75;;
32535;SDS011;18974;50.838;4.636;2022-11-15T06:37:55;19.25;;;10.55;;
32535;SDS011;18974;50.838;4.636;2022-11-15T06:40:26;18.05;;;10.15;;
32535;SDS011;18974;50.838;4.636;2022-11-15T06:42:56;20.52;;;10.82;;
32535;SDS011;18974;50.838;4.636;2022-11-15T06:45:23;28.38;;;12.77;;
32535;SDS011;18974;50.838;4.636;2022-11-15T06:47:48;28.83;;;13.07;;
32535;SDS011;18974;50.838;4.636;2022-11-15T06:50:14;26.20;;;12.73;;
32535;SDS011;18974;50.838;4.636;2022-11-15T06:52:40;28.42;;;13.95;;
32535;SDS011;18974;50.838;4.636;2022-11-15T06:55:05;26.23;;;11.88;;
32535;SDS011;18974;50.838;4.636;2022-11-15T06:57:32;20.17;;;10.43;;
32535;SDS011;18974;50.838;4.636;2022-11-15T06:59:57;20.40;;;10.65;;
32535;SDS011;18974;50.838;4.636;2022-11-15T07:02:23;21.15;;;10.57;;
32535;SDS011;18974;50.838;4.636;2022-11-15T07:04:49;25.92;;;11.48;;
32535;SDS011;18974;50.838;4.636;2022-11-15T07:07:14;23.52;;;11.27;;
32535;SDS011;18974;50.838;4.636;2022-11-15T07:09:40;24.88;;;11.93;;
32535;SDS011;18974;50.838;4.636;2022-11-15T07:12:05;23.30;;;11.27;;
32535;SDS011;18974;50.838;4.636;2022-11-15T07:14:31;32.30;;;10.80;;
32535;SDS011;18974;50.838;4.636;2022-11-15T07:16:57;23.00;;;10.10;;
32535;SDS011;18974;50.838;4.636;2022-11-15T07:19:22;20.05;;;9.65;;
32535;SDS011;18974;50.838;4.636;2022-11-15T07:21:48;19.38;;;9.55;;
32535;SDS011;18974;50.838;4.636;2022-11-15T07:24:13;22.65;;;9.23;;
32535;SDS011;18974;50.838;4.636;2022-11-15T07:26:39;18.42;;;9.25;;
32535;SDS011;18974;50.838;4.636;2022-11-15T07:29:05;17.70;;;9.52;;
32535;SDS011;18974;50.838;4.636;2022-11-15T07:31:30;13.93;;;8.38;;
32535;SDS011;18974;50.838;4.636;2022-11-15T07:33:56;19.27;;;8.95;;
32535;SDS011;18974;50.838;4.636;2022-11-15T07:36:22;13.60;;;7.85;;
32535;SDS011;18974;50.838;4.636;2022-11-15T07:38:47;15.98;;;7.90;;
32535;SDS011;18974;50.838;4.636;2022-11-15T07:41:13;15.20;;;7.13;;
32535;SDS011;18974;50.838;4.636;2022-11-15T07:43:38;17.23;;;8.15;;
32535;SDS011;18974;50.838;4.636;2022-11-15T07:46:08;16.90;;;8.93;;
32535;SDS011;18974;50.838;4.636;2022-11-15T07:48:34;14.75;;;7.70;;
32535;SDS011;18974;50.838;4.636;2022-11-15T07:51:00;20.08;;;7.38;;
32535;SDS011;18974;50.838;4.636;2022-11-15T07:53:26;19.83;;;6.90;;
32535;SDS011;18974;50.838;4.636;2022-11-15T07:55:52;13.20;;;6.53;;
32535;SDS011;18974;50.838;4.636;2022-11-15T07:58:18;15.25;;;6.88;;
32535;SDS011;18974;50.838;4.636;2022-11-15T08:00:44;10.25;;;5.97;;
32535;SDS011;18974;50.838;4.636;2022-11-15T08:03:11;14.40;;;5.75;;
32535;SDS011;18974;50.838;4.636;2022-11-15T08:05:39;11.40;;;5.72;;
32535;SDS011;18974;50.838;4.636;2022-11-15T08:08:05;12.43;;;4.88;;
32535;SDS011;18974;50.838;4.636;2022-11-15T08:10:33;13.80;;;4.82;;
32535;SDS011;18974;50.838;4.636;2022-11-15T08:13:00;13.13;;;4.65;;
32535;SDS011;18974;50.838;4.636;2022-11-15T08:15:27;11.93;;;4.40;;
32535;SDS011;18974;50.838;4.636;2022-11-15T08:17:56;6.13;;;4.65;;
32535;SDS011;18974;50.838;4.636;2022-11-15T08:20:23;8.55;;;4.28;;
32535;SDS011;18974;50.838;4.636;2022-11-15T08:22:49;9.23;;;4.03;;
32535;SDS011;18974;50.838;4.636;2022-11-15T08:25:16;9.98;;;3.58;;
32535;SDS011;18974;50.838;4.636;2022-11-15T08:27:42;10.25;;;2.97;;
32535;SDS011;18974;50.838;4.636;2022-11-15T08:30:08;5.00;;;2.85;;
32535;SDS011;18974;50.838;4.636;2022-11-15T08:32:34;15.00;;;3.00;;
32535;SDS011;18974;50.838;4.636;2022-11-15T08:35:00;6.28;;;2.63;;
32535;SDS011;18974;50.838;4.636;2022-11-15T08:37:25;6.07;;;2.95;;
32535;SDS011;18974;50.838;4.636;2022-11-15T08:39:51;9.88;;;2.17;;
32535;SDS011;18974;50.838;4.636;2022-11-15T08:42:17;7.60;;;2.60;;
32535;SDS011;18974;50.838;4.636;2022-11-15T08:44:42;8.05;;;2.28;;
32535;SDS011;18974;50.838;4.636;2022-11-15T08:47:10;6.03;;;2.00;;
32535;SDS011;18974;50.838;4.636;2022-11-15T08:49:37;7.70;;;1.95;;
32535;SDS011;18974;50.838;4.636;2022-11-15T08:52:02;3.50;;;1.65;;
32535;SDS011;18974;50.838;4.636;2022-11-15T08:54:28;6.13;;;1.92;;
32535;SDS011;18974;50.838;4.636;2022-11-15T08:56:54;3.55;;;1.67;;
32535;SDS011;18974;50.838;4.636;2022-11-15T08:59:19;6.88;;;1.95;;
32535;SDS011;18974;50.838;4.636;2022-11-15T09:01:45;3.50;;;1.20;;
32535;SDS011;18974;50.838;4.636;2022-11-15T09:04:11;5.03;;;1.52;;
32535;SDS011;18974;50.838;4.636;2022-11-15T09:06:36;4.05;;;1.58;;
32535;SDS011;18974;50.838;4.636;2022-11-15T09:09:02;4.80;;;1.33;;
32535;SDS011;18974;50.838;4.636;2022-11-15T09:11:28;5.45;;;1.20;;
32535;SDS011;18974;50.838;4.636;2022-11-15T09:13:54;15.55;;;2.63;;
32535;SDS011;18974;50.838;4.636;2022-11-15T09:16:19;4.88;;;1.40;;
32535;SDS011;18974;50.838;4.636;2022-11-15T09:18:45;5.38;;;1.98;;
32535;SDS011;18974;50.838;4.636;2022-11-15T09:21:11;6.25;;;1.38;;
32535;SDS011;18974;50.838;4.636;2022-11-15T09:23:36;7.93;;;1.67;;
32535;SDS011;18974;50.838;4.636;2022-11-15T09:26:03;5.72;;;1.35;;
32535;SDS011;18974;50.838;4.636;2022-11-15T09:28:30;2.40;;;0.90;;
32535;SDS011;18974;50.838;4.636;2022-11-15T09:30:59;8.52;;;1.65;;
32535;SDS011;18974;50.838;4.636;2022-11-15T09:33:26;5.85;;;1.17;;
32535;SDS011;18974;50.838;4.636;2022-11-15T09:35:52;7.95;;;1.30;;
32535;SDS011;18974;50.838;4.636;2022-11-15T09:38:18;2.30;;;1.00;;
32535;SDS011;18974;50.838;4.636;2022-11-15T09:40:45;7.82;;;1.40;;
32535;SDS011;18974;50.838;4.636;2022-11-15T09:48:55;7.28;;;1.50;;
32535;SDS011;18974;50.838;4.636;2022-11-15T09:51:34;5.55;;;1.13;;
32535;SDS011;18974;50.838;4.636;2022-11-15T09:54:03;4.00;;;1.20;;
32535;SDS011;18974;50.838;4.636;2022-11-15T09:56:34;6.15;;;1.00;;
32535;SDS011;18974;50.838;4.636;2022-11-15T10:04:32;5.57;;;1.30;;
32535;SDS011;18974;50.838;4.636;2022-11-15T10:07:03;2.85;;;1.00;;
32535;SDS011;18974;50.838;4.636;2022-11-15T10:09:42;8.90;;;1.20;;
32535;SDS011;18974;50.838;4.636;2022-11-15T10:12:10;7.45;;;1.40;;
32535;SDS011;18974;50.838;4.636;2022-11-15T10:14:37;6.72;;;1.10;;
32535;SDS011;18974;50.838;4.636;2022-11-15T10:17:14;4.45;;;1.30;;
32535;SDS011;18974;50.838;4.636;2022-11-15T10:22:29;6.82;;;1.08;;
32535;SDS011;18974;50.838;4.636;2022-11-15T10:25:17;7.18;;;1.30;;
32535;SDS011;18974;50.838;4.636;2022-11-15T10:27:47;6.68;;;1.05;;
32535;SDS011;18974;50.838;4.636;2022-11-15T10:30:18;3.70;;;1.10;;
32535;SDS011;18974;50.838;4.636;2022-11-15T10:32:45;6.57;;;1.40;;
32535;SDS011;18974;50.838;4.636;2022-11-15T10:35:22;6.75;;;1.10;;
32535;SDS011;18974;50.838;4.636;2022-11-15T10:37:50;7.05;;;1.20;;
32535;SDS011;18974;50.838;4.636;2022-11-15T10:40:22;5.97;;;1.00;;
32535;SDS011;18974;50.838;4.636;2022-11-15T10:43:04;6.47;;;1.33;;
32535;SDS011;18974;50.838;4.636;2022-11-15T10:45:44;4.07;;;1.17;;
32535;SDS011;18974;50.838;4.636;2022-11-15T10:50:43;7.28;;;1.00;;
32535;SDS011;18974;50.838;4.636;2022-11-15T10:55:53;3.97;;;1.30;;
32535;SDS011;18974;50.838;4.636;2022-11-15T11:01:10;5.18;;;1.08;;
32535;SDS011;18974;50.838;4.636;2022-11-15T11:03:38;6.32;;;1.23;;
32535;SDS011;18974;50.838;4.636;2022-11-15T11:08:33;3.20;;;0.93;;
32535;SDS011;18974;50.838;4.636;2022-11-15T11:10:59;3.08;;;1.02;;
32535;SDS011;18974;50.838;4.636;2022-11-15T11:13:31;5.43;;;1.10;;
32535;SDS011;18974;50.838;4.636;2022-11-15T11:21:46;7.53;;;1.10;;
32535;SDS011;18974;50.838;4.636;2022-11-15T11:35:11;4.38;;;1.05;;
32535;SDS011;18974;50.838;4.636;2022-11-15T11:37:55;5.82;;;0.90;;
32535;SDS011;18974;50.838;4.636;2022-11-15T11:40:39;11.85;;;1.90;;
32535;SDS011;18974;50.838;4.636;2022-11-15T11:45:49;4.05;;;1.30;;
32535;SDS011;18974;50.838;4.636;2022-11-15T11:48:34;4.03;;;0.88;;
32535;SDS011;18974;50.838;4.636;2022-11-15T11:51:12;9.82;;;1.00;;
32535;SDS011;18974;50.838;4.636;2022-11-15T11:53:46;5.50;;;1.10;;
32535;SDS011;18974;50.838;4.636;2022-11-15T11:56:23;5.80;;;1.10;;
32535;SDS011;18974;50.838;4.636;2022-11-15T11:58:53;3.15;;;0.70;;
32535;SDS011;18974;50.838;4.636;2022-11-15T12:01:26;6.68;;;1.10;;
32535;SDS011;18974;50.838;4.636;2022-11-15T12:03:59;6.95;;;1.40;;
32535;SDS011;18974;50.838;4.636;2022-11-15T12:09:21;6.20;;;0.82;;
32535;SDS011;18974;50.838;4.636;2022-11-15T12:12:13;4.80;;;0.82;;
32535;SDS011;18974;50.838;4.636;2022-11-15T12:17:34;6.05;;;1.27;;
32535;SDS011;18974;50.838;4.636;2022-11-15T12:20:04;4.40;;;1.00;;
32535;SDS011;18974;50.838;4.636;2022-11-15T12:22:45;3.70;;;0.95;;
32535;SDS011;18974;50.838;4.636;2022-11-15T12:25:41;8.70;;;1.23;;
32535;SDS011;18974;50.838;4.636;2022-11-15T12:31:32;2.65;;;0.95;;
32535;SDS011;18974;50.838;4.636;2022-11-15T12:36:57;4.72;;;1.10;;
32535;SDS011;18974;50.838;4.636;2022-11-15T12:44:58;3.80;;;1.10;;
32535;SDS011;18974;50.838;4.636;2022-11-15T12:47:25;2.40;;;0.95;;
32535;SDS011;18974;50.838;4.636;2022-11-15T12:49:51;14.85;;;1.45;;
32535;SDS011;18974;50.838;4.636;2022-11-15T12:52:17;9.25;;;1.88;;
32535;SDS011;18974;50.838;4.636;2022-11-15T12:54:56;9.20;;;2.17;;
32535;SDS011;18974;50.838;4.636;2022-11-15T12:57:31;3.42;;;1.20;;
32535;SDS011;18974;50.838;4.636;2022-11-15T12:59:59;8.47;;;2.80;;
32535;SDS011;18974;50.838;4.636;2022-11-15T13:02:37;4.55;;;1.35;;
32535;SDS011;18974;50.838;4.636;2022-11-15T13:17:45;6.57;;;1.20;;
32535;SDS011;18974;50.838;4.636;2022-11-15T13:28:26;7.47;;;1.63;;
32535;SDS011;18974;50.838;4.636;2022-11-15T13:30:57;4.78;;;1.40;;
32535;SDS011;18974;50.838;4.636;2022-11-15T13:33:28;4.80;;;1.88;;
32535;SDS011;18974;50.838;4.636;2022-11-15T13:36:01;3.13;;;1.23;;
32535;SDS011;18974;50.838;4.636;2022-11-15T13:38:28;4.15;;;1.00;;
32535;SDS011;18974;50.838;4.636;2022-11-15T13:41:17;4.72;;;1.75;;
32535;SDS011;18974;50.838;4.636;2022-11-15T13:43:43;2.80;;;1.10;;
32535;SDS011;18974;50.838;4.636;2022-11-15T13:48:37;4.07;;;1.20;;
32535;SDS011;18974;50.838;4.636;2022-11-15T13:51:08;2.08;;;1.00;;
32535;SDS011;18974;50.838;4.636;2022-11-15T13:53:40;6.18;;;1.20;;
32535;SDS011;18974;50.838;4.636;2022-11-15T13:56:11;2.45;;;1.08;;
32535;SDS011;18974;50.838;4.636;2022-11-15T13:58:38;3.72;;;0.90;;
32535;SDS011;18974;50.838;4.636;2022-11-15T14:01:04;2.13;;;0.93;;
32535;SDS011;18974;50.838;4.636;2022-11-15T14:03:32;2.97;;;0.82;;
32535;SDS011;18974;50.838;4.636;2022-11-15T14:06:16;1.30;;;0.80;;
32535;SDS011;18974;50.838;4.636;2022-11-15T14:11:33;1.60;;;0.80;;
32535;SDS011;18974;50.838;4.636;2022-11-15T14:14:02;5.35;;;0.93;;
32535;SDS011;18974;50.838;4.636;2022-11-15T14:19:09;1.55;;;1.05;;
32535;SDS011;18974;50.838;4.636;2022-11-15T14:21:36;2.30;;;0.95;;
32535;SDS011;18974;50.838;4.636;2022-11-15T14:24:16;4.63;;;0.88;;
32535;SDS011;18974;50.838;4.636;2022-11-15T14:26:43;3.22;;;1.00;;
32535;SDS011;18974;50.838;4.636;2022-11-15T14:29:25;5.38;;;2.28;;
32535;SDS011;18974;50.838;4.636;2022-11-15T14:31:52;5.07;;;1.23;;
32535;SDS011;18974;50.838;4.636;2022-11-15T14:34:19;4.47;;;1.00;;
32535;SDS011;18974;50.838;4.636;2022-11-15T14:36:47;6.72;;;1.00;;
32535;SDS011;18974;50.838;4.636;2022-11-15T14:39:13;1.38;;;0.90;;
32535;SDS011;18974;50.838;4.636;2022-11-15T14:41:38;4.50;;;1.00;;
32535;SDS011;18974;50.838;4.636;2022-11-15T14:44:04;4.18;;;1.00;;
32535;SDS011;18974;50.838;4.636;2022-11-15T14:46:31;3.35;;;1.25;;
32535;SDS011;18974;50.838;4.636;2022-11-15T14:48:56;3.45;;;1.20;;
32535;SDS011;18974;50.838;4.636;2022-11-15T14:51:22;2.63;;;0.90;;
32535;SDS011;18974;50.838;4.636;2022-11-15T14:53:48;5.82;;;1.20;;
32535;SDS011;18974;50.838;4.636;2022-11-15T14:56:14;1.70;;;0.95;;
32535;SDS011;18974;50.838;4.636;2022-11-15T14:58:41;4.68;;;1.23;;
32535;SDS011;18974;50.838;4.636;2022-11-15T15:01:12;1.98;;;1.10;;
32535;SDS011;18974;50.838;4.636;2022-11-15T15:03:41;3.67;;;1.10;;
32535;SDS011;18974;50.838;4.636;2022-11-15T15:06:09;6.97;;;1.20;;
32535;SDS011;18974;50.838;4.636;2022-11-15T15:08:34;7.57;;;1.17;;
32535;SDS011;18974;50.838;4.636;2022-11-15T15:11:00;1.70;;;0.82;;
32535;SDS011;18974;50.838;4.636;2022-11-15T15:13:27;2.95;;;1.02;;
32535;SDS011;18974;50.838;4.636;2022-11-15T15:15:55;3.72;;;1.15;;
32535;SDS011;18974;50.838;4.636;2022-11-15T15:18:20;2.53;;;1.38;;
32535;SDS011;18974;50.838;4.636;2022-11-15T15:20:47;9.27;;;1.48;;
32535;SDS011;18974;50.838;4.636;2022-11-15T15:23:19;2.95;;;1.30;;
32535;SDS011;18974;50.838;4.636;2022-11-15T15:25:46;1.77;;;1.00;;
32535;SDS011;18974;50.838;4.636;2022-11-15T15:28:13;2.03;;;1.30;;
32535;SDS011;18974;50.838;4.636;2022-11-15T15:30:39;3.42;;;1.33;;
32535;SDS011;18974;50.838;4.636;2022-11-15T15:33:05;3.35;;;1.25;;
32535;SDS011;18974;50.838;4.636;2022-11-15T15:35:32;5.10;;;1.20;;
32535;SDS011;18974;50.838;4.636;2022-11-15T15:38:00;3.05;;;1.60;;
32535;SDS011;18974;50.838;4.636;2022-11-15T15:40:27;6.00;;;1.52;;
32535;SDS011;18974;50.838;4.636;2022-11-15T15:42:54;3.42;;;1.70;;
32535;SDS011;18974;50.838;4.636;2022-11-15T15:45:19;3.30;;;1.23;;
32535;SDS011;18974;50.838;4.636;2022-11-15T15:47:45;4.75;;;1.50;;
32535;SDS011;18974;50.838;4.636;2022-11-15T15:52:41;3.45;;;1.55;;
32535;SDS011;18974;50.838;4.636;2022-11-15T15:55:07;3.10;;;1.52;;
32535;SDS011;18974;50.838;4.636;2022-11-15T15:57:33;3.40;;;1.83;;
32535;SDS011;18974;50.838;4.636;2022-11-15T15:59:59;2.13;;;1.20;;
32535;SDS011;18974;50.838;4.636;2022-11-15T16:02:24;3.63;;;1.40;;
32535;SDS011;18974;50.838;4.636;2022-11-15T16:04:50;2.28;;;1.25;;
32535;SDS011;18974;50.838;4.636;2022-11-15T16:07:17;2.60;;;1.52;;
32535;SDS011;18974;50.838;4.636;2022-11-15T16:09:48;5.10;;;1.70;;
32535;SDS011;18974;50.838;4.636;2022-11-15T16:12:30;3.17;;;1.30;;
32535;SDS011;18974;50.838;4.636;2022-11-15T16:14:59;2.75;;;1.63;;
32535;SDS011;18974;50.838;4.636;2022-11-15T16:17:26;2.20;;;1.40;;
32535;SDS011;18974;50.838;4.636;2022-11-15T16:19:55;2.35;;;1.80;;
32535;SDS011;18974;50.838;4.636;2022-11-15T16:22:21;3.45;;;1.95;;
32535;SDS011;18974;50.838;4.636;2022-11-15T16:24:46;5.60;;;1.75;;
32535;SDS011;18974;50.838;4.636;2022-11-15T16:27:16;2.47;;;1.95;;
32535;SDS011;18974;50.838;4.636;2022-11-15T16:29:45;2.08;;;1.63;;
32535;SDS011;18974;50.838;4.636;2022-11-15T16:32:11;2.45;;;1.70;;
32535;SDS011;18974;50.838;4.636;2022-11-15T16:34:37;3.10;;;1.80;;
32535;SDS011;18974;50.838;4.636;2022-11-15T16:37:03;4.57;;;2.00;;
32535;SDS011;18974;50.838;4.636;2022-11-15T16:39:29;4.55;;;2.30;;
32535;SDS011;18974;50.838;4.636;2022-11-15T16:41:56;2.75;;;1.98;;
32535;SDS011;18974;50.838;4.636;2022-11-15T16:44:22;4.32;;;1.90;;
32535;SDS011;18974;50.838;4.636;2022-11-15T16:46:49;2.55;;;2.15;;
32535;SDS011;18974;50.838;4.636;2022-11-15T16:49:18;3.53;;;1.85;;
32535;SDS011;18974;50.838;4.636;2022-11-15T16:51:45;2.85;;;2.08;;
32535;SDS011;18974;50.838;4.636;2022-11-15T16:54:14;3.28;;;2.30;;
32535;SDS011;18974;50.838;4.636;2022-11-15T16:56:40;3.70;;;2.47;;